createdAt,value
2019-02-19T00:00:18.856Z,73.67
2019-02-19T00:01:18.864Z,73.02
2019-02-19T00:02:18.885Z,73.16
2019-02-19T00:03:18.824Z,72.95
2019-02-19T00:04:18.832Z,73.57
2019-02-19T00:05:18.821Z,73.47
2019-02-19T00:06:18.825Z,73.88
2019-02-19T00:07:18.781Z,73.77
2019-02-19T00:08:18.777Z,73.77
2019-02-19T00:09:18.794Z,73.88
2019-02-19T00:10:18.745Z,73.77
2019-02-19T00:11:18.741Z,73.67
2019-02-19T00:12:18.750Z,73.57
2019-02-19T00:13:18.770Z,74.50
2019-02-19T00:14:18.693Z,73.36
2019-02-19T00:15:18.695Z,73.36
2019-02-19T00:16:18.757Z,72.98
2019-02-19T00:17:18.731Z,73.39
2019-02-19T00:18:18.659Z,74.02
2019-02-19T00:19:18.679Z,73.81
2019-02-19T00:20:18.633Z,73.60
2019-02-19T00:21:20.231Z,73.81
2019-02-19T00:22:18.648Z,74.02
2019-02-19T00:23:18.654Z,74.63
2019-02-19T00:24:18.599Z,75.53
2019-02-19T00:25:18.574Z,75.12
2019-02-19T00:26:18.634Z,75.32
2019-02-19T00:27:18.563Z,74.50
2019-02-19T00:28:18.560Z,75.43
2019-02-19T00:29:18.541Z,74.91
2019-02-19T00:30:18.598Z,75.32
2019-02-19T00:31:18.552Z,76.05
2019-02-19T00:32:18.541Z,75.29
2019-02-19T00:33:18.492Z,75.39
2019-02-19T00:34:18.498Z,74.88
2019-02-19T00:35:18.521Z,74.36
2019-02-19T00:36:18.507Z,73.95
2019-02-19T00:37:18.520Z,74.57
2019-02-19T00:38:18.435Z,74.57
2019-02-19T00:39:18.421Z,74.15
2019-02-19T00:40:18.417Z,74.26
2019-02-19T00:41:18.449Z,73.85
2019-02-19T00:42:18.408Z,75.09
2019-02-19T00:43:18.463Z,75.19
2019-02-19T00:44:18.370Z,74.67
2019-02-19T00:45:18.360Z,75.39
2019-02-19T00:46:18.344Z,75.26
2019-02-19T00:47:18.394Z,74.84
2019-02-19T00:48:18.355Z,75.22
2019-02-19T00:49:18.318Z,74.81
2019-02-19T00:50:18.309Z,74.88
2019-02-19T00:51:18.371Z,73.68
2019-02-19T00:52:18.316Z,73.43
2019-02-19T00:53:18.298Z,73.43
2019-02-19T00:54:18.260Z,73.22
2019-02-19T00:55:18.299Z,73.54
2019-02-19T00:56:18.232Z,73.64
2019-02-19T00:57:18.238Z,73.74
2019-02-19T00:58:18.304Z,73.22
2019-02-19T00:59:18.249Z,73.85
2019-02-19T01:00:18.273Z,73.85
2019-02-19T01:01:18.189Z,73.33
2019-02-19T01:02:18.171Z,73.33
2019-02-19T01:03:18.159Z,73.64
2019-02-19T01:04:18.156Z,73.09
2019-02-19T01:05:18.157Z,73.50
2019-02-19T01:06:18.138Z,73.19
2019-02-19T01:07:18.112Z,72.88
2019-02-19T01:08:18.191Z,73.12
2019-02-19T01:09:18.093Z,73.30
2019-02-19T01:10:18.098Z,73.19
2019-02-19T01:11:18.097Z,73.09
2019-02-19T01:12:18.074Z,72.78
2019-02-19T01:13:18.054Z,73.09
2019-02-19T01:14:18.072Z,73.30
2019-02-19T01:15:25.221Z,73.26
2019-02-19T01:16:19.123Z,72.85
2019-02-19T01:17:18.002Z,72.44
2019-02-19T01:18:17.991Z,72.30
2019-02-19T01:19:18.003Z,72.23
2019-02-19T01:20:17.977Z,72.64
2019-02-19T01:21:17.964Z,72.44
2019-02-19T01:22:17.991Z,72.54
2019-02-19T01:23:17.941Z,73.16
2019-02-19T01:24:17.931Z,72.33
2019-02-19T01:25:17.936Z,72.54
2019-02-19T01:26:17.983Z,72.64
2019-02-19T01:27:17.923Z,72.51
2019-02-19T01:28:17.888Z,72.20
2019-02-19T01:29:17.950Z,72.41
2019-02-19T01:30:17.883Z,72.20
2019-02-19T01:31:17.861Z,72.20
2019-02-19T01:32:17.846Z,72.20
2019-02-19T01:33:17.854Z,72.20
2019-02-19T01:34:17.849Z,72.30
2019-02-19T01:35:17.802Z,72.30
2019-02-19T01:36:17.800Z,72.20
2019-02-19T01:37:17.871Z,71.99
2019-02-19T01:38:17.792Z,72.30
2019-02-19T01:39:17.764Z,71.69
2019-02-19T01:40:17.763Z,72.09
2019-02-19T01:41:17.770Z,71.48
2019-02-19T01:42:18.786Z,71.78
2019-02-19T01:43:18.236Z,71.58
2019-02-19T01:44:17.717Z,71.44
2019-02-19T01:45:17.698Z,71.37
2019-02-19T01:46:17.690Z,71.69
2019-02-19T01:47:17.720Z,71.75
2019-02-19T01:48:17.737Z,71.44
2019-02-19T01:49:17.656Z,71.55
2019-02-19T01:50:17.667Z,71.37
2019-02-19T01:51:17.693Z,71.78
2019-02-19T01:52:17.649Z,71.37
2019-02-19T01:53:17.638Z,71.99
2019-02-19T01:54:17.627Z,71.14
2019-02-19T01:55:17.628Z,71.48
2019-02-19T01:56:17.576Z,71.48
2019-02-19T01:57:17.633Z,71.89
2019-02-19T01:58:17.621Z,71.06
2019-02-19T01:59:17.551Z,71.69
2019-02-19T02:00:17.548Z,71.58
2019-02-19T02:01:17.552Z,71.06
2019-02-19T02:02:18.251Z,70.96
2019-02-19T02:03:17.502Z,71.24
2019-02-19T02:04:18.204Z,70.10
2019-02-19T02:05:17.539Z,71.37
2019-02-19T02:06:17.475Z,71.14
2019-02-19T02:07:17.491Z,71.14
2019-02-19T02:08:17.456Z,71.44
2019-02-19T02:09:17.441Z,71.34
2019-02-19T02:10:17.463Z,71.24
2019-02-19T02:11:17.428Z,71.34
2019-02-19T02:12:17.477Z,71.44
2019-02-19T02:13:17.394Z,71.14
2019-02-19T02:14:17.396Z,71.24
2019-02-19T02:15:17.367Z,71.00
2019-02-19T02:16:17.374Z,71.14
2019-02-19T02:17:17.391Z,71.03
2019-02-19T02:18:17.348Z,71.34
2019-02-19T02:19:17.390Z,70.21
2019-02-19T02:20:17.327Z,71.44
2019-02-19T02:21:17.313Z,71.06
2019-02-19T02:22:17.290Z,71.37
2019-02-19T02:23:17.359Z,71.69
2019-02-19T02:24:17.265Z,71.48
2019-02-19T02:25:17.263Z,71.27
2019-02-19T02:26:17.248Z,71.89
2019-02-19T02:27:17.245Z,71.48
2019-02-19T02:28:17.261Z,71.37
2019-02-19T02:29:17.262Z,71.27
2019-02-19T02:30:17.318Z,71.51
2019-02-19T02:31:17.245Z,71.61
2019-02-19T02:32:17.185Z,71.61
2019-02-19T02:33:17.244Z,72.03
2019-02-19T02:34:17.182Z,71.89
2019-02-19T02:35:17.165Z,72.44
2019-02-19T02:36:17.153Z,72.64
2019-02-19T02:37:17.143Z,72.20
2019-02-19T02:38:17.123Z,71.99
2019-02-19T02:39:17.180Z,71.99
2019-02-19T02:40:17.130Z,72.51
2019-02-19T02:41:17.102Z,71.96
2019-02-19T02:42:17.093Z,71.75
2019-02-19T02:43:17.064Z,71.65
2019-02-19T02:44:17.100Z,71.65
2019-02-19T02:45:17.068Z,71.86
2019-02-19T02:46:17.035Z,71.55
2019-02-19T02:47:17.037Z,72.06
2019-02-19T02:48:17.022Z,71.62
2019-02-19T02:49:17.087Z,71.82
2019-02-19T02:50:17.032Z,71.82
2019-02-19T02:51:16.998Z,71.62
2019-02-19T02:52:16.993Z,71.51
2019-02-19T02:53:17.027Z,71.82
2019-02-19T02:54:16.956Z,71.28
2019-02-19T02:55:16.990Z,71.69
2019-02-19T02:56:16.944Z,71.79
2019-02-19T02:57:16.930Z,71.58
2019-02-19T02:58:17.694Z,71.48
2019-02-19T02:59:17.710Z,71.69
2019-02-19T03:00:16.904Z,71.28
2019-02-19T03:01:16.889Z,71.79
2019-02-19T03:02:16.869Z,71.79
2019-02-19T03:03:16.859Z,72.00
2019-02-19T03:04:16.887Z,71.37
2019-02-19T03:05:16.834Z,72.06
2019-02-19T03:06:16.833Z,72.06
2019-02-19T03:07:16.847Z,72.27
2019-02-19T03:08:16.802Z,72.06
2019-02-19T03:09:16.801Z,71.34
2019-02-19T03:10:16.803Z,71.86
2019-02-19T03:11:16.766Z,72.17
2019-02-19T03:12:16.755Z,72.27
2019-02-19T03:13:16.773Z,72.38
2019-02-19T03:14:16.741Z,72.89
2019-02-19T03:15:17.724Z,72.78
2019-02-19T03:16:16.747Z,72.68
2019-02-19T03:17:16.738Z,73.09
2019-02-19T03:18:16.692Z,73.19
2019-02-19T03:19:17.210Z,72.99
2019-02-19T03:20:16.680Z,72.99
2019-02-19T03:21:16.721Z,73.50
2019-02-19T03:22:16.676Z,73.27
2019-02-19T03:23:16.664Z,73.30
2019-02-19T03:24:16.625Z,73.36
2019-02-19T03:25:16.614Z,73.36
2019-02-19T03:26:16.644Z,73.47
2019-02-19T03:27:16.618Z,73.47
2019-02-19T03:28:16.576Z,73.27
2019-02-19T03:29:16.576Z,73.47
2019-02-19T03:30:16.550Z,73.36
2019-02-19T03:31:16.547Z,73.27
2019-02-19T03:32:16.588Z,73.36
2019-02-19T03:33:16.518Z,73.47
2019-02-19T03:34:16.524Z,73.47
2019-02-19T03:35:16.566Z,74.40
2019-02-19T03:36:18.267Z,74.50
2019-02-19T03:37:16.503Z,74.08
2019-02-19T03:38:17.210Z,74.50
2019-02-19T03:39:16.445Z,74.40
2019-02-19T03:40:16.496Z,74.80
2019-02-19T03:41:16.429Z,74.91
2019-02-19T03:42:16.468Z,74.91
2019-02-19T03:43:16.434Z,74.80
2019-02-19T03:44:16.465Z,74.95
2019-02-19T03:45:16.445Z,75.32
2019-02-19T03:46:16.473Z,76.07
2019-02-19T03:47:16.360Z,75.76
2019-02-19T03:48:16.353Z,75.87
2019-02-19T03:49:16.377Z,76.07
2019-02-19T03:50:16.376Z,76.18
2019-02-19T03:51:16.340Z,76.25
2019-02-19T03:52:16.313Z,76.28
2019-02-19T03:53:16.336Z,76.48
2019-02-19T03:54:16.307Z,76.59
2019-02-19T03:55:17.230Z,77.51
2019-02-19T03:56:16.335Z,78.13
2019-02-19T03:57:16.253Z,77.92
2019-02-19T03:58:16.312Z,77.62
2019-02-19T03:59:16.240Z,77.92
2019-02-19T04:00:16.239Z,77.92
2019-02-19T04:01:16.208Z,77.92
2019-02-19T04:02:16.254Z,78.44
2019-02-19T04:03:16.186Z,78.33
2019-02-19T04:04:16.180Z,78.44
2019-02-19T04:05:16.230Z,78.33
2019-02-19T04:06:16.196Z,78.54
2019-02-19T04:07:16.142Z,78.44
2019-02-19T04:08:16.142Z,78.33
2019-02-19T04:09:16.122Z,78.44
2019-02-19T04:10:16.141Z,78.33
2019-02-19T04:11:16.122Z,78.23
2019-02-19T04:12:16.699Z,78.75
2019-02-19T04:13:16.087Z,78.99
2019-02-19T04:14:16.078Z,79.98
2019-02-19T04:15:16.062Z,79.47
2019-02-19T04:16:21.284Z,79.40
2019-02-19T04:17:17.121Z,80.53
2019-02-19T04:18:16.023Z,80.63
2019-02-19T04:19:16.017Z,80.53
2019-02-19T04:20:16.034Z,80.63
2019-02-19T04:21:15.991Z,80.94
2019-02-19T04:22:15.986Z,80.63
2019-02-19T04:23:16.708Z,81.56
2019-02-19T04:24:15.988Z,81.25
2019-02-19T04:25:15.988Z,81.87
2019-02-19T04:26:15.944Z,82.79
2019-02-19T04:27:15.929Z,82.48
2019-02-19T04:28:15.947Z,83.00
2019-02-19T04:29:15.941Z,82.63
2019-02-19T04:30:15.896Z,83.51
2019-02-19T04:31:16.700Z,83.45
2019-02-19T04:32:15.910Z,82.93
2019-02-19T04:33:16.752Z,83.55
2019-02-19T04:34:15.877Z,83.97
2019-02-19T04:35:15.845Z,83.97
2019-02-19T04:36:15.894Z,83.65
2019-02-19T04:37:15.853Z,84.27
2019-02-19T04:38:15.858Z,84.38
2019-02-19T04:39:15.874Z,84.69
2019-02-19T04:40:15.858Z,85.51
2019-02-19T04:41:15.816Z,85.30
2019-02-19T04:42:15.769Z,85.34
2019-02-19T04:43:15.776Z,85.75
2019-02-19T04:44:15.830Z,86.68
2019-02-19T04:45:15.781Z,86.47
2019-02-19T04:46:15.799Z,86.79
2019-02-19T04:47:15.701Z,86.27
2019-02-19T04:48:15.758Z,86.61
2019-02-19T04:49:15.777Z,86.61
2019-02-19T04:50:15.722Z,86.82
2019-02-19T04:51:15.735Z,87.13
2019-02-19T04:52:15.665Z,87.44
2019-02-19T04:53:15.641Z,87.75
2019-02-19T04:54:15.638Z,88.57
2019-02-19T04:55:15.736Z,88.06
2019-02-19T04:56:15.659Z,88.06
2019-02-19T04:57:15.666Z,88.47
2019-02-19T04:58:15.588Z,88.17
2019-02-19T04:59:15.577Z,89.34
2019-02-19T05:00:15.671Z,88.31
2019-02-19T05:01:15.588Z,87.96
2019-02-19T05:02:15.618Z,89.03
2019-02-19T05:03:15.593Z,87.96
2019-02-19T05:04:15.529Z,88.31
2019-02-19T05:05:15.516Z,88.31
2019-02-19T05:06:15.511Z,88.72
2019-02-19T05:07:15.528Z,88.72
2019-02-19T05:08:15.530Z,89.13
2019-02-19T05:09:15.534Z,88.20
2019-02-19T05:10:15.464Z,88.72
2019-02-19T05:11:15.456Z,89.13
2019-02-19T05:12:15.443Z,88.76
2019-02-19T05:13:15.517Z,88.31
2019-02-19T05:14:15.466Z,89.65
2019-02-19T05:15:15.401Z,89.03
2019-02-19T05:16:15.388Z,88.41
2019-02-19T05:17:16.382Z,88.86
2019-02-19T05:18:15.375Z,88.31
2019-02-19T05:19:15.415Z,88.51
2019-02-19T05:20:15.404Z,88.51
2019-02-19T05:21:15.436Z,88.62
2019-02-19T05:22:15.329Z,88.92
2019-02-19T05:23:15.329Z,89.28
2019-02-19T05:24:15.315Z,88.65
2019-02-19T05:25:15.352Z,88.82
2019-02-19T05:26:15.321Z,88.72
2019-02-19T05:27:15.279Z,88.45
2019-02-19T05:28:15.340Z,89.38
2019-02-19T05:29:15.254Z,88.76
2019-02-19T05:30:15.244Z,88.65
2019-02-19T05:31:15.267Z,89.48
2019-02-19T05:32:15.262Z,89.48
2019-02-19T05:33:15.213Z,89.48
2019-02-19T05:34:15.256Z,89.48
2019-02-19T05:35:15.191Z,89.28
2019-02-19T05:36:15.180Z,89.17
2019-02-19T05:37:15.201Z,88.56
2019-02-19T05:38:15.203Z,89.38
2019-02-19T05:39:15.155Z,88.65
2019-02-19T05:40:15.140Z,88.82
2019-02-19T05:41:15.125Z,89.17
2019-02-19T05:42:15.138Z,89.89
2019-02-19T05:43:15.098Z,89.17
2019-02-19T05:44:15.091Z,89.69
2019-02-19T05:45:15.090Z,89.48
2019-02-19T05:46:15.090Z,88.76
2019-02-19T05:47:15.116Z,89.69
2019-02-19T05:48:15.060Z,89.28
2019-02-19T05:49:15.035Z,88.45
2019-02-19T05:50:15.075Z,88.76
2019-02-19T05:51:15.006Z,88.35
2019-02-19T05:52:15.091Z,88.82
2019-02-19T05:53:15.008Z,88.56
2019-02-19T05:54:14.986Z,89.38
2019-02-19T05:55:16.753Z,88.56
2019-02-19T05:56:14.972Z,89.28
2019-02-19T05:57:14.947Z,89.17
2019-02-19T05:58:15.029Z,88.86
2019-02-19T05:59:15.191Z,89.69
2019-02-19T06:00:15.692Z,88.35
2019-02-19T06:01:14.943Z,88.56
2019-02-19T06:02:14.908Z,88.96
2019-02-19T06:03:14.881Z,88.35
2019-02-19T06:04:15.679Z,88.65
2019-02-19T06:05:14.871Z,89.28
2019-02-19T06:06:14.885Z,89.38
2019-02-19T06:07:14.898Z,88.35
2019-02-19T06:08:14.824Z,89.28
2019-02-19T06:09:14.820Z,89.17
2019-02-19T06:10:14.810Z,88.35
2019-02-19T06:11:14.821Z,89.38
2019-02-19T06:12:14.793Z,88.04
2019-02-19T06:13:14.863Z,88.45
2019-02-19T06:14:14.787Z,88.35
2019-02-19T06:15:14.753Z,88.04
2019-02-19T06:16:14.761Z,88.86
2019-02-19T06:17:14.759Z,89.28
2019-02-19T06:18:14.974Z,88.65
2019-02-19T06:19:14.703Z,87.83
2019-02-19T06:20:14.719Z,88.35
2019-02-19T06:21:15.186Z,88.96
2019-02-19T06:22:14.683Z,89.28
2019-02-19T06:23:14.704Z,88.65
2019-02-19T06:24:14.714Z,88.51
2019-02-19T06:25:14.685Z,88.41
2019-02-19T06:26:15.640Z,88.31
2019-02-19T06:27:14.629Z,88.62
2019-02-19T06:28:14.656Z,88.10
2019-02-19T06:29:14.777Z,88.51
2019-02-19T06:30:14.601Z,88.35
2019-02-19T06:31:14.592Z,87.90
2019-02-19T06:32:15.598Z,87.90
2019-02-19T06:33:14.570Z,87.79
2019-02-19T06:34:14.575Z,87.99
2019-02-19T06:35:14.544Z,88.20
2019-02-19T06:36:14.716Z,88.10
2019-02-19T06:37:14.521Z,88.10
2019-02-19T06:38:14.503Z,88.20
2019-02-19T06:39:14.540Z,88.31
2019-02-19T06:40:14.476Z,88.10
2019-02-19T06:41:14.528Z,88.10
2019-02-19T06:42:14.506Z,87.79
2019-02-19T06:43:14.484Z,88.20
2019-02-19T06:44:14.542Z,87.90
2019-02-19T06:45:14.444Z,88.10
2019-02-19T06:46:14.462Z,87.85
2019-02-19T06:47:14.415Z,88.20
2019-02-19T06:48:14.428Z,87.79
2019-02-19T06:49:14.455Z,87.54
2019-02-19T06:50:14.386Z,87.79
2019-02-19T06:51:15.190Z,87.44
2019-02-19T06:52:14.394Z,87.69
2019-02-19T06:53:14.389Z,87.69
2019-02-19T06:54:14.395Z,88.57
2019-02-19T06:55:14.317Z,88.10
2019-02-19T06:56:14.319Z,87.99
2019-02-19T06:57:14.313Z,87.90
2019-02-19T06:58:14.295Z,88.20
2019-02-19T06:59:14.330Z,88.41
2019-02-19T07:00:14.407Z,88.31
2019-02-19T07:01:14.257Z,88.31
2019-02-19T07:02:14.270Z,88.17
2019-02-19T07:03:14.260Z,88.10
2019-02-19T07:04:14.234Z,87.99
2019-02-19T07:05:14.276Z,87.99
2019-02-19T07:06:14.197Z,88.10
2019-02-19T07:07:14.291Z,87.99
2019-02-19T07:08:14.216Z,87.90
2019-02-19T07:09:14.169Z,87.99
2019-02-19T07:10:14.213Z,87.79
2019-02-19T07:11:14.187Z,88.10
2019-02-19T07:12:14.158Z,88.41
2019-02-19T07:13:14.141Z,88.31
2019-02-19T07:14:14.127Z,88.62
2019-02-19T07:15:14.157Z,88.41
2019-02-19T07:16:14.112Z,88.41
2019-02-19T07:17:15.899Z,88.41
2019-02-19T07:18:14.070Z,88.41
2019-02-19T07:19:14.096Z,88.41
2019-02-19T07:20:14.105Z,88.51
2019-02-19T07:21:14.055Z,88.31
2019-02-19T07:22:14.028Z,88.41
2019-02-19T07:23:14.094Z,88.51
2019-02-19T07:24:14.063Z,88.51
2019-02-19T07:25:14.020Z,88.37
2019-02-19T07:26:13.989Z,88.51
2019-02-19T07:27:14.011Z,88.47
2019-02-19T07:28:13.985Z,88.26
2019-02-19T07:29:15.135Z,88.51
2019-02-19T07:30:13.970Z,87.99
2019-02-19T07:31:13.959Z,87.96
2019-02-19T07:32:13.926Z,88.37
2019-02-19T07:33:13.949Z,88.37
2019-02-19T07:34:13.902Z,87.96
2019-02-19T07:35:13.901Z,88.17
2019-02-19T07:36:13.954Z,87.85
2019-02-19T07:37:14.726Z,87.96
2019-02-19T07:38:13.872Z,87.96
2019-02-19T07:39:13.946Z,87.85
2019-02-19T07:41:26.248Z,87.75
2019-02-19T07:42:24.975Z,87.85
2019-02-19T07:43:25.091Z,87.34
2019-02-19T07:44:24.643Z,87.75
2019-02-19T07:45:24.565Z,87.75
2019-02-19T07:46:24.582Z,87.65
2019-02-19T07:47:24.942Z,87.30
2019-02-19T07:48:24.541Z,87.40
2019-02-19T07:49:24.483Z,87.51
2019-02-19T07:50:25.355Z,87.09
2019-02-19T07:51:24.557Z,86.37
2019-02-19T07:52:24.470Z,86.58
2019-02-19T07:53:24.459Z,86.79
2019-02-19T07:54:24.422Z,86.27
2019-02-19T07:55:24.850Z,85.96
2019-02-19T07:56:24.401Z,86.68
2019-02-19T07:57:24.481Z,86.47
2019-02-19T07:58:24.383Z,86.47
2019-02-19T08:00:36.498Z,86.68
2019-02-19T08:01:36.042Z,85.96
2019-02-19T08:02:35.519Z,86.27
2019-02-19T08:03:35.180Z,86.58
2019-02-19T08:04:35.139Z,86.68
2019-02-19T08:05:35.129Z,86.47
2019-02-19T08:06:35.068Z,86.68
2019-02-19T08:07:35.059Z,86.27
2019-02-19T08:08:35.084Z,86.47
2019-02-19T08:09:35.073Z,86.06
2019-02-19T08:10:35.030Z,85.96
2019-02-19T08:11:35.037Z,85.44
2019-02-19T08:12:35.064Z,85.96
2019-02-19T08:13:35.036Z,85.96
2019-02-19T08:14:35.010Z,85.24
2019-02-19T08:15:34.987Z,85.65
2019-02-19T08:16:35.074Z,85.55
2019-02-19T08:17:34.982Z,85.03
2019-02-19T08:18:35.173Z,85.34
2019-02-19T08:20:59.682Z,85.86
2019-02-19T08:22:00.493Z,85.14
2019-02-19T08:22:59.022Z,85.55
2019-02-19T08:23:59.053Z,85.34
2019-02-19T08:24:58.933Z,85.65
2019-02-19T08:25:58.984Z,85.20
2019-02-19T08:26:58.980Z,85.55
2019-02-19T08:27:58.915Z,84.62
2019-02-19T08:29:07.113Z,84.38
2019-02-19T08:29:59.948Z,84.21
2019-02-19T08:30:58.943Z,84.38
2019-02-19T08:31:58.914Z,84.27
2019-02-19T08:32:59.431Z,84.07
2019-02-19T08:33:59.455Z,84.48
2019-02-19T08:34:58.899Z,84.27
2019-02-19T08:35:58.882Z,83.55
2019-02-19T08:36:58.800Z,84.07
2019-02-19T08:37:58.870Z,84.07
2019-02-19T08:38:58.810Z,83.76
2019-02-19T08:39:59.766Z,84.27
2019-02-19T08:40:59.549Z,84.27
2019-02-19T08:41:58.778Z,83.25
2019-02-19T08:42:58.748Z,83.25
2019-02-19T08:43:58.786Z,83.04
2019-02-19T08:44:58.739Z,82.93
2019-02-19T08:48:42.078Z,83.14
2019-02-19T08:49:32.684Z,83.14
2019-02-19T08:50:32.597Z,82.73
2019-02-19T08:51:32.564Z,82.42
2019-02-19T08:52:32.566Z,82.73
2019-02-19T08:53:32.514Z,82.53
2019-02-19T08:54:32.532Z,82.73
2019-02-19T08:55:33.405Z,82.63
2019-02-19T08:56:32.487Z,82.32
2019-02-19T08:57:32.482Z,82.53
2019-02-19T08:58:32.501Z,82.42
2019-02-19T08:59:32.461Z,82.11
2019-02-19T09:00:32.457Z,81.60
2019-02-19T09:01:32.462Z,81.81
2019-02-19T09:02:32.453Z,81.70
2019-02-19T09:03:32.437Z,81.49
2019-02-19T09:04:32.426Z,81.60
2019-02-19T09:05:32.404Z,81.25
2019-02-19T09:06:32.428Z,81.60
2019-02-19T09:07:32.397Z,81.29
2019-02-19T09:08:34.332Z,81.49
2019-02-19T09:09:32.372Z,82.53
2019-02-19T09:10:32.388Z,80.77
2019-02-19T09:11:32.326Z,80.67
2019-02-19T09:12:32.326Z,80.77
2019-02-19T09:13:32.301Z,81.15
2019-02-19T09:14:32.308Z,80.53
2019-02-19T09:15:32.324Z,81.25
2019-02-19T09:16:32.286Z,80.53
2019-02-19T09:17:32.272Z,81.56
2019-02-19T09:18:32.377Z,80.43
2019-02-19T09:19:32.300Z,80.60
2019-02-19T09:20:32.280Z,80.19
2019-02-19T09:21:32.214Z,79.36
2019-02-19T09:22:32.402Z,80.29
2019-02-19T09:23:32.194Z,80.08
2019-02-19T09:24:32.214Z,80.39
2019-02-19T09:25:32.215Z,79.26
2019-02-19T09:26:32.220Z,79.05
2019-02-19T09:27:32.145Z,79.47
2019-02-19T09:28:32.229Z,79.67
2019-02-19T09:29:32.177Z,78.61
2019-02-19T09:30:32.107Z,78.13
2019-02-19T09:31:32.126Z,78.81
2019-02-19T09:32:32.112Z,79.53
2019-02-19T09:33:32.078Z,78.81
2019-02-19T09:34:32.066Z,78.30
2019-02-19T09:35:32.295Z,78.61
2019-02-19T09:36:32.058Z,78.50
2019-02-19T09:37:32.082Z,78.61
2019-02-19T09:38:32.085Z,79.84
2019-02-19T09:39:32.048Z,78.20
2019-02-19T09:40:33.529Z,78.09
2019-02-19T09:41:31.987Z,77.78
2019-02-19T09:42:31.986Z,78.20
2019-02-19T09:43:35.583Z,78.92
2019-02-19T09:44:31.955Z,78.09
2019-02-19T09:45:31.967Z,78.40
2019-02-19T09:46:32.004Z,77.75
2019-02-19T09:47:32.031Z,77.06
2019-02-19T09:48:32.084Z,76.97
2019-02-19T09:49:31.952Z,77.78
2019-02-19T09:50:31.887Z,77.78
2019-02-19T09:51:31.883Z,76.65
2019-02-19T09:52:31.873Z,76.45
2019-02-19T09:53:31.887Z,77.27
2019-02-19T09:54:31.908Z,78.09
2019-02-19T09:55:31.832Z,77.48
2019-02-19T09:56:31.857Z,77.58
2019-02-19T09:57:32.755Z,77.55
2019-02-19T09:58:31.845Z,77.58
2019-02-19T09:59:31.959Z,77.23
2019-02-19T10:00:31.786Z,77.13
2019-02-19T10:01:31.763Z,77.95
2019-02-19T10:02:31.794Z,76.62
2019-02-19T10:03:31.743Z,76.00
2019-02-19T10:04:31.793Z,75.18
2019-02-19T10:05:31.741Z,75.70
2019-02-19T10:06:31.714Z,74.36
2019-02-19T10:07:31.710Z,74.36
2019-02-19T10:08:31.728Z,74.57
2019-02-19T10:09:31.781Z,74.15
2019-02-19T10:10:31.691Z,74.36
2019-02-19T10:11:31.712Z,74.80
2019-02-19T10:12:31.651Z,75.59
2019-02-19T10:13:31.674Z,74.87
2019-02-19T10:14:31.642Z,74.87
2019-02-19T10:15:31.667Z,75.08
2019-02-19T10:16:31.626Z,75.18
2019-02-19T10:17:31.598Z,75.38
2019-02-19T10:18:31.583Z,76.21
2019-02-19T10:19:31.615Z,76.17
2019-02-19T10:20:31.583Z,75.97
2019-02-19T10:21:31.580Z,75.66
2019-02-19T10:22:31.554Z,74.63
2019-02-19T10:23:31.594Z,73.40
2019-02-19T10:24:31.519Z,73.40
2019-02-19T10:25:31.501Z,73.19
2019-02-19T10:26:31.538Z,73.40
2019-02-19T10:27:31.479Z,73.30
2019-02-19T10:28:31.468Z,72.89
2019-02-19T10:29:31.571Z,72.51
2019-02-19T10:30:31.576Z,72.27
2019-02-19T10:31:31.443Z,72.68
2019-02-19T10:32:31.498Z,72.99
2019-02-19T10:33:31.432Z,73.19
2019-02-19T10:34:31.406Z,73.47
2019-02-19T10:35:31.480Z,73.27
2019-02-19T10:36:31.400Z,71.83
2019-02-19T10:37:31.400Z,72.48
2019-02-19T10:38:31.408Z,72.96
2019-02-19T10:39:31.377Z,72.85
2019-02-19T10:40:31.340Z,72.85
2019-02-19T10:41:31.327Z,72.68
2019-02-19T10:42:31.351Z,72.75
2019-02-19T10:43:31.321Z,72.44
2019-02-19T10:44:31.312Z,72.44
2019-02-19T10:45:31.283Z,72.03
2019-02-19T10:46:31.368Z,72.24
2019-02-19T10:47:31.307Z,71.62
2019-02-19T10:48:31.446Z,71.62
2019-02-19T10:49:31.260Z,71.11
2019-02-19T10:50:31.232Z,71.11
2019-02-19T10:51:31.245Z,71.21
2019-02-19T10:52:31.264Z,71.28
2019-02-19T10:53:31.194Z,71.21
2019-02-19T10:54:31.223Z,70.97
2019-02-19T10:55:31.182Z,70.46
2019-02-19T10:56:31.176Z,69.74
2019-02-19T10:57:31.221Z,70.39
2019-02-19T10:58:31.207Z,71.01
2019-02-19T10:59:31.225Z,71.21
2019-02-19T11:00:31.193Z,71.48
2019-02-19T11:01:31.127Z,71.39
2019-02-19T11:02:31.194Z,69.54
2019-02-19T11:03:31.178Z,69.74
2019-02-19T11:04:31.161Z,69.84
2019-02-19T11:05:31.169Z,69.54
2019-02-19T11:06:31.181Z,69.74
2019-02-19T11:07:31.080Z,69.33
2019-02-19T11:08:32.015Z,69.54
2019-02-19T11:09:31.046Z,69.13
2019-02-19T11:10:31.063Z,69.02
2019-02-19T11:11:31.118Z,69.23
2019-02-19T11:12:31.036Z,68.79
2019-02-19T11:13:31.022Z,68.89
2019-02-19T11:14:31.049Z,69.40
2019-02-19T11:15:31.001Z,68.96
2019-02-19T11:16:30.945Z,68.38
2019-02-19T11:17:30.971Z,68.04
2019-02-19T11:18:30.972Z,67.02
2019-02-19T11:19:30.925Z,66.81
2019-02-19T11:20:30.911Z,66.81
2019-02-19T11:21:30.970Z,66.47
2019-02-19T11:22:30.929Z,66.50
2019-02-19T11:23:30.930Z,66.67
2019-02-19T11:24:31.119Z,66.57
2019-02-19T11:25:30.863Z,66.67
2019-02-19T11:26:30.847Z,67.29
2019-02-19T11:27:30.833Z,66.47
2019-02-19T11:28:30.884Z,66.57
2019-02-19T11:29:30.859Z,67.36
2019-02-19T11:30:30.800Z,66.54
2019-02-19T11:31:30.781Z,66.78
2019-02-19T11:32:30.779Z,66.34
2019-02-19T11:33:30.834Z,66.47
2019-02-19T11:34:30.752Z,67.19
2019-02-19T11:35:30.756Z,65.86
2019-02-19T11:36:30.736Z,66.57
2019-02-19T11:37:30.874Z,66.78
2019-02-19T11:38:30.746Z,65.72
2019-02-19T11:39:30.950Z,66.13
2019-02-19T11:40:30.701Z,66.03
2019-02-19T11:41:32.587Z,65.31
2019-02-19T11:42:30.706Z,65.18
2019-02-19T11:43:30.726Z,65.39
2019-02-19T11:44:30.659Z,64.47
2019-02-19T11:45:30.632Z,63.75
2019-02-19T11:46:30.620Z,63.88
2019-02-19T11:47:30.639Z,64.09
2019-02-19T11:48:36.764Z,63.98
2019-02-19T11:49:31.603Z,64.29
2019-02-19T11:50:30.586Z,64.50
2019-02-19T11:51:30.608Z,64.01
2019-02-19T11:52:30.571Z,64.60
2019-02-19T11:53:30.579Z,65.01
2019-02-19T11:54:30.528Z,65.42
2019-02-19T11:55:30.550Z,65.18
2019-02-19T11:56:30.590Z,63.65
2019-02-19T11:57:30.496Z,63.65
2019-02-19T11:58:30.561Z,63.78
2019-02-19T11:59:30.550Z,63.34
2019-02-19T12:00:30.563Z,63.47
2019-02-19T12:01:30.448Z,64.50
2019-02-19T12:02:32.995Z,64.60
2019-02-19T12:03:30.435Z,64.18
2019-02-19T12:04:30.574Z,64.90
2019-02-19T12:05:30.546Z,64.70
2019-02-19T12:06:30.398Z,64.83
2019-02-19T12:07:30.417Z,64.83
2019-02-19T12:08:38.663Z,63.98
2019-02-19T12:09:31.367Z,64.80
2019-02-19T12:10:30.395Z,64.73
2019-02-19T12:11:30.400Z,64.32
2019-02-19T12:12:30.388Z,64.12
2019-02-19T12:13:30.317Z,63.91
2019-02-19T12:14:30.341Z,64.73
2019-02-19T12:15:35.224Z,64.50
2019-02-19T12:16:31.355Z,64.60
2019-02-19T12:17:30.269Z,64.60
2019-02-19T12:18:30.272Z,64.90
2019-02-19T12:19:30.268Z,64.80
2019-02-19T12:20:30.257Z,64.80
2019-02-19T12:21:30.296Z,64.60
2019-02-19T12:22:30.220Z,64.09
2019-02-19T12:23:30.390Z,64.70
2019-02-19T12:24:30.226Z,64.70
2019-02-19T12:25:30.215Z,64.80
2019-02-19T12:26:30.207Z,64.87
2019-02-19T12:27:30.213Z,63.34
2019-02-19T12:28:30.365Z,64.09
2019-02-19T12:29:33.078Z,64.18
2019-02-19T12:30:30.136Z,64.09
2019-02-19T12:31:30.131Z,64.50
2019-02-19T12:32:30.273Z,63.68
2019-02-19T12:33:30.161Z,63.98
2019-02-19T12:34:30.111Z,64.32
2019-02-19T12:35:30.110Z,64.60
2019-02-19T12:36:30.160Z,64.50
2019-02-19T12:37:30.119Z,64.70
2019-02-19T12:38:30.108Z,64.90
2019-02-19T12:39:30.033Z,64.94
2019-02-19T12:40:30.089Z,64.62
2019-02-19T12:41:30.054Z,65.45
2019-02-19T12:42:30.111Z,65.65
2019-02-19T12:43:29.999Z,65.86
2019-02-19T12:44:30.011Z,64.12
2019-02-19T12:45:29.966Z,64.32
2019-02-19T12:46:31.575Z,64.73
2019-02-19T12:47:30.016Z,64.94
2019-02-19T12:48:29.941Z,64.94
2019-02-19T12:49:29.962Z,64.73
2019-02-19T12:55:29.848Z,63.60
2019-02-19T12:56:29.231Z,63.68
2019-02-19T12:57:29.276Z,63.81
2019-02-19T12:58:28.910Z,63.70
2019-02-19T12:59:28.878Z,64.42
2019-02-19T13:00:28.918Z,63.70
2019-02-19T13:01:28.844Z,63.81
2019-02-19T13:02:28.832Z,63.81
2019-02-19T13:03:29.771Z,64.42